aviador You're here:

CYXS Decoded Metar

PRINCE GEORGE in BC, CANADA
Report Time2017-07-21 04:00:00
UTC Time2017-07-21 04:37:02
Flight Rules vfr VFR
Wind180° at 12 kt
W.Decomp.*RWY 15: 11.9 kt HW 1.9 kt RCW
RWY 19: 10.3 kt HW 6.2 kt LCW
RWY 24: 1.9 kt HW 11.9 kt LCW
W.Rank180° ranks 1
Current wind is above 180° avg. (8.7)
Visibility9999 m
Phenomena:N/A
Clouds:Overcast 080 Hf
Expected CloudBase > 1,200 ft AGL from Temp-Dew spread
Ceiling8,000 ft
Temp14°C (ISA +3)
Dew Point11°C (82% RH)
AAT10.0°C
QNH1015 hPa
Density Alt2,799 ft
Elevation2,267 ft
Report Wrong Elevation
Raw Report
CYXS 210400Z AUTO 18012KT 9SM OVC080 14/11 A2998 RMK SLP163
DENSITY ALT 2600FT=

Extra information for CYXS:More info

Metar Taf Metar & Taf Last 4 Metars F.Rules Stats Wind Profile Meteogram Temp Stats Airport Information Weather charts Add Link Nearby VenuesMetar ALERT Operation Metar Decoded Social comments